RJNH(METAR)
01/24 01:00
METAR RJNH 231600Z 28012KT 9999 FEW020 M01/M07 Q1019 RMK 1CU020
A3011=
戻る
トップページへ戻る
IMOC Co,.Ltd.